sensor_id;sensor_type;location;lat;lon;timestamp;pressure;altitude;pressure_sealevel;temperature;humidity
64460;BME280;50828;53.756;21.140;2023-08-12T00:04:44;100525.27;;;11.56;56.45
64460;BME280;50828;53.756;21.140;2023-08-12T00:09:52;100528.73;;;11.48;56.96
64460;BME280;50828;53.756;21.140;2023-08-12T00:15:02;100533.25;;;11.41;57.16
64460;BME280;50828;53.756;21.140;2023-08-12T00:20:12;100535.25;;;11.34;57.17
64460;BME280;50828;53.756;21.140;2023-08-12T00:25:21;100533.02;;;11.28;57.21
64460;BME280;50828;53.756;21.140;2023-08-12T00:30:29;100535.90;;;11.21;57.45
64460;BME280;50828;53.756;21.140;2023-08-12T00:35:38;100541.37;;;11.16;57.81
64460;BME280;50828;53.756;21.140;2023-08-12T00:40:47;100540.88;;;11.11;57.80
64460;BME280;50828;53.756;21.140;2023-08-12T00:45:55;100542.09;;;11.06;58.32
64460;BME280;50828;53.756;21.140;2023-08-12T00:51:03;100539.96;;;11.01;58.02
64460;BME280;50828;53.756;21.140;2023-08-12T00:56:13;100537.52;;;10.96;58.31
64460;BME280;50828;53.756;21.140;2023-08-12T01:01:23;100528.89;;;10.90;58.30
64460;BME280;50828;53.756;21.140;2023-08-12T01:06:33;100529.77;;;10.86;58.43
64460;BME280;50828;53.756;21.140;2023-08-12T01:11:55;100526.41;;;10.80;58.59
64460;BME280;50828;53.756;21.140;2023-08-12T01:17:08;100522.91;;;10.74;58.88
64460;BME280;50828;53.756;21.140;2023-08-12T01:22:22;100523.48;;;10.68;58.71
64460;BME280;50828;53.756;21.140;2023-08-12T01:27:33;100522.80;;;10.62;59.16
64460;BME280;50828;53.756;21.140;2023-08-12T01:32:50;100522.77;;;10.58;58.88
64460;BME280;50828;53.756;21.140;2023-08-12T01:38:05;100523.10;;;10.53;59.06
64460;BME280;50828;53.756;21.140;2023-08-12T01:43:14;100529.54;;;10.51;59.17
64460;BME280;50828;53.756;21.140;2023-08-12T01:48:23;100530.92;;;10.46;59.63
64460;BME280;50828;53.756;21.140;2023-08-12T01:53:31;100530.54;;;10.41;59.85
64460;BME280;50828;53.756;21.140;2023-08-12T01:58:39;100532.44;;;10.37;59.79
64460;BME280;50828;53.756;21.140;2023-08-12T02:03:47;100527.66;;;10.32;59.93
64460;BME280;50828;53.756;21.140;2023-08-12T02:08:56;100527.05;;;10.28;60.12
64460;BME280;50828;53.756;21.140;2023-08-12T02:14:05;100528.44;;;10.23;59.80
64460;BME280;50828;53.756;21.140;2023-08-12T02:19:12;100524.02;;;10.19;60.12
64460;BME280;50828;53.756;21.140;2023-08-12T02:24:21;100519.44;;;10.13;60.03
64460;BME280;50828;53.756;21.140;2023-08-12T02:29:28;100521.86;;;10.09;60.16
64460;BME280;50828;53.756;21.140;2023-08-12T02:34:36;100526.35;;;10.06;60.27
64460;BME280;50828;53.756;21.140;2023-08-12T02:39:43;100529.23;;;10.04;60.36
64460;BME280;50828;53.756;21.140;2023-08-12T02:44:52;100528.42;;;10.02;60.42
64460;BME280;50828;53.756;21.140;2023-08-12T02:50:00;100530.98;;;9.99;60.49
64460;BME280;50828;53.756;21.140;2023-08-12T02:55:10;100534.98;;;9.95;60.53
64460;BME280;50828;53.756;21.140;2023-08-12T03:00:20;100538.45;;;9.90;60.82
64460;BME280;50828;53.756;21.140;2023-08-12T03:05:29;100537.72;;;9.86;60.83
64460;BME280;50828;53.756;21.140;2023-08-12T03:10:39;100539.83;;;9.80;61.05
64460;BME280;50828;53.756;21.140;2023-08-12T03:15:49;100542.45;;;9.74;61.08
64460;BME280;50828;53.756;21.140;2023-08-12T03:20:58;100544.72;;;9.69;61.21
64460;BME280;50828;53.756;21.140;2023-08-12T03:26:07;100547.60;;;9.67;61.61
64460;BME280;50828;53.756;21.140;2023-08-12T03:31:16;100550.51;;;9.64;61.79
64460;BME280;50828;53.756;21.140;2023-08-12T03:36:25;100547.44;;;9.61;61.89
64460;BME280;50828;53.756;21.140;2023-08-12T03:41:34;100548.20;;;9.59;62.07
64460;BME280;50828;53.756;21.140;2023-08-12T03:46:43;100547.35;;;9.58;62.40
64460;BME280;50828;53.756;21.140;2023-08-12T03:51:51;100547.67;;;9.59;62.84
64460;BME280;50828;53.756;21.140;2023-08-12T03:57:00;100549.17;;;9.61;63.03
64460;BME280;50828;53.756;21.140;2023-08-12T04:02:09;100554.86;;;9.65;63.16
64460;BME280;50828;53.756;21.140;2023-08-12T04:07:17;100557.21;;;9.69;63.56
64460;BME280;50828;53.756;21.140;2023-08-12T04:12:25;100555.46;;;9.75;63.48
64460;BME280;50828;53.756;21.140;2023-08-12T04:17:34;100557.18;;;9.82;63.81
64460;BME280;50828;53.756;21.140;2023-08-12T04:22:44;100546.67;;;9.92;63.97
64460;BME280;50828;53.756;21.140;2023-08-12T04:27:56;100549.80;;;10.04;64.24
64460;BME280;50828;53.756;21.140;2023-08-12T04:33:06;100547.84;;;10.17;64.54
64460;BME280;50828;53.756;21.140;2023-08-12T04:38:14;100546.84;;;10.32;64.52
64460;BME280;50828;53.756;21.140;2023-08-12T04:43:23;100547.08;;;10.52;64.69
64460;BME280;50828;53.756;21.140;2023-08-12T04:48:32;100548.85;;;10.78;64.98
64460;BME280;50828;53.756;21.140;2023-08-12T04:53:41;100546.54;;;11.09;65.23
64460;BME280;50828;53.756;21.140;2023-08-12T04:58:49;100543.45;;;11.46;65.47
64460;BME280;50828;53.756;21.140;2023-08-12T05:04:00;100536.14;;;11.86;65.44
64460;BME280;50828;53.756;21.140;2023-08-12T05:09:08;100538.67;;;12.30;65.35
64460;BME280;50828;53.756;21.140;2023-08-12T05:14:18;100537.20;;;12.74;65.59
64460;BME280;50828;53.756;21.140;2023-08-12T05:19:26;100538.88;;;13.17;65.48
64460;BME280;50828;53.756;21.140;2023-08-12T05:24:35;100536.45;;;13.60;65.63
64460;BME280;50828;53.756;21.140;2023-08-12T05:29:43;100529.39;;;14.01;65.57
64460;BME280;50828;53.756;21.140;2023-08-12T05:34:54;100530.95;;;14.42;65.39
64460;BME280;50828;53.756;21.140;2023-08-12T05:40:02;100538.19;;;14.86;64.92
64460;BME280;50828;53.756;21.140;2023-08-12T05:45:14;100538.98;;;15.32;64.51
64460;BME280;50828;53.756;21.140;2023-08-12T05:50:22;100532.73;;;15.79;64.20
64460;BME280;50828;53.756;21.140;2023-08-12T05:55:30;100530.59;;;16.20;64.03
64460;BME280;50828;53.756;21.140;2023-08-12T06:00:38;100527.15;;;16.53;63.97
64460;BME280;50828;53.756;21.140;2023-08-12T06:05:47;100526.15;;;16.79;63.43
64460;BME280;50828;53.756;21.140;2023-08-12T06:10:56;100528.11;;;17.00;63.01
64460;BME280;50828;53.756;21.140;2023-08-12T06:16:05;100524.08;;;17.20;62.57
64460;BME280;50828;53.756;21.140;2023-08-12T06:21:13;100524.17;;;17.38;61.99
64460;BME280;50828;53.756;21.140;2023-08-12T06:26:22;100524.07;;;17.54;61.39
64460;BME280;50828;53.756;21.140;2023-08-12T06:31:30;100516.80;;;17.74;61.10
64460;BME280;50828;53.756;21.140;2023-08-12T06:36:39;100514.45;;;17.97;60.52
64460;BME280;50828;53.756;21.140;2023-08-12T06:41:49;100519.05;;;18.20;60.14
64460;BME280;50828;53.756;21.140;2023-08-12T06:46:59;100514.45;;;18.41;59.56
64460;BME280;50828;53.756;21.140;2023-08-12T06:52:08;100516.14;;;18.61;59.11
64460;BME280;50828;53.756;21.140;2023-08-12T06:57:17;100512.59;;;18.79;58.41
64460;BME280;50828;53.756;21.140;2023-08-12T07:02:24;100505.61;;;18.95;57.91
64460;BME280;50828;53.756;21.140;2023-08-12T07:07:33;100503.59;;;19.06;57.42
64460;BME280;50828;53.756;21.140;2023-08-12T07:12:40;100501.42;;;19.20;56.97
64460;BME280;50828;53.756;21.140;2023-08-12T07:17:48;100498.99;;;19.31;56.49
64460;BME280;50828;53.756;21.140;2023-08-12T07:22:57;100493.38;;;19.43;56.10
64460;BME280;50828;53.756;21.140;2023-08-12T07:28:05;100487.45;;;19.53;55.00
64460;BME280;50828;53.756;21.140;2023-08-12T07:33:13;100483.02;;;19.63;54.21
64460;BME280;50828;53.756;21.140;2023-08-12T07:38:21;100483.93;;;19.75;54.07
64460;BME280;50828;53.756;21.140;2023-08-12T07:43:30;100484.21;;;19.89;53.47
64460;BME280;50828;53.756;21.140;2023-08-12T07:48:39;100484.73;;;20.03;52.99
64460;BME280;50828;53.756;21.140;2023-08-12T07:53:48;100485.70;;;20.17;52.43
64460;BME280;50828;53.756;21.140;2023-08-12T07:58:57;100482.83;;;20.29;51.98
64460;BME280;50828;53.756;21.140;2023-08-12T08:04:07;100476.77;;;20.43;51.71
64460;BME280;50828;53.756;21.140;2023-08-12T08:09:15;100474.78;;;20.57;51.32
64460;BME280;50828;53.756;21.140;2023-08-12T08:14:24;100468.15;;;20.72;50.88
64460;BME280;50828;53.756;21.140;2023-08-12T08:19:32;100465.64;;;20.86;50.49
64460;BME280;50828;53.756;21.140;2023-08-12T08:24:41;100465.49;;;21.04;49.96
64460;BME280;50828;53.756;21.140;2023-08-12T08:29:50;100455.25;;;21.18;48.98
64460;BME280;50828;53.756;21.140;2023-08-12T08:34:58;100449.30;;;21.30;48.34
64460;BME280;50828;53.756;21.140;2023-08-12T08:40:11;100449.08;;;21.39;47.65
64460;BME280;50828;53.756;21.140;2023-08-12T08:45:20;100445.65;;;21.49;47.21
64460;BME280;50828;53.756;21.140;2023-08-12T08:50:29;100442.71;;;21.61;46.99
64460;BME280;50828;53.756;21.140;2023-08-12T08:55:38;100439.20;;;21.73;46.66
64460;BME280;50828;53.756;21.140;2023-08-12T09:00:47;100430.36;;;21.85;46.64
64460;BME280;50828;53.756;21.140;2023-08-12T09:05:56;100429.30;;;21.96;46.23
64460;BME280;50828;53.756;21.140;2023-08-12T09:11:06;100431.29;;;22.06;45.77
64460;BME280;50828;53.756;21.140;2023-08-12T09:16:15;100423.23;;;22.17;45.46
64460;BME280;50828;53.756;21.140;2023-08-12T09:21:24;100424.27;;;22.26;44.77
64460;BME280;50828;53.756;21.140;2023-08-12T09:26:33;100423.20;;;22.32;44.50
64460;BME280;50828;53.756;21.140;2023-08-12T09:31:42;100416.33;;;22.40;44.36
64460;BME280;50828;53.756;21.140;2023-08-12T09:36:51;100405.60;;;22.50;44.06
64460;BME280;50828;53.756;21.140;2023-08-12T09:42:00;100410.47;;;22.62;43.99
64460;BME280;50828;53.756;21.140;2023-08-12T09:47:11;100412.65;;;22.72;43.86
64460;BME280;50828;53.756;21.140;2023-08-12T09:52:20;100405.30;;;22.80;43.65
64460;BME280;50828;53.756;21.140;2023-08-12T09:57:30;100404.05;;;22.93;43.26
64460;BME280;50828;53.756;21.140;2023-08-12T10:02:43;100395.29;;;23.03;42.63
64460;BME280;50828;53.756;21.140;2023-08-12T10:07:51;100395.86;;;23.13;42.51
64460;BME280;50828;53.756;21.140;2023-08-12T10:13:01;100385.31;;;23.20;42.17
64460;BME280;50828;53.756;21.140;2023-08-12T10:18:15;100381.10;;;23.27;42.21
64460;BME280;50828;53.756;21.140;2023-08-12T10:23:23;100386.60;;;23.36;42.13
64460;BME280;50828;53.756;21.140;2023-08-12T10:28:33;100381.77;;;23.46;41.85
64460;BME280;50828;53.756;21.140;2023-08-12T10:33:44;100380.90;;;23.55;41.68
64460;BME280;50828;53.756;21.140;2023-08-12T10:38:57;100381.75;;;23.64;41.57
64460;BME280;50828;53.756;21.140;2023-08-12T10:44:07;100369.38;;;23.75;41.42
64460;BME280;50828;53.756;21.140;2023-08-12T10:49:15;100364.36;;;23.87;41.22
64460;BME280;50828;53.756;21.140;2023-08-12T10:54:27;100363.79;;;23.97;40.93
64460;BME280;50828;53.756;21.140;2023-08-12T10:59:56;100364.09;;;24.06;40.49
64460;BME280;50828;53.756;21.140;2023-08-12T11:05:06;100360.35;;;24.15;40.23
64460;BME280;50828;53.756;21.140;2023-08-12T11:10:17;100351.94;;;24.23;40.09
64460;BME280;50828;53.756;21.140;2023-08-12T11:15:34;100357.15;;;24.30;39.97
64460;BME280;50828;53.756;21.140;2023-08-12T11:20:44;100348.02;;;24.37;39.37
64460;BME280;50828;53.756;21.140;2023-08-12T11:25:53;100346.95;;;24.43;39.50
64460;BME280;50828;53.756;21.140;2023-08-12T11:31:02;100330.98;;;24.50;39.58
64460;BME280;50828;53.756;21.140;2023-08-12T11:36:10;100328.41;;;24.57;39.41
64460;BME280;50828;53.756;21.140;2023-08-12T11:41:24;100325.40;;;24.61;39.26
64460;BME280;50828;53.756;21.140;2023-08-12T11:46:34;100321.09;;;24.67;39.20
64460;BME280;50828;53.756;21.140;2023-08-12T11:51:42;100310.67;;;24.72;39.38
64460;BME280;50828;53.756;21.140;2023-08-12T11:56:53;100309.80;;;24.80;39.22
64460;BME280;50828;53.756;21.140;2023-08-12T12:02:06;100295.57;;;24.89;39.27
64460;BME280;50828;53.756;21.140;2023-08-12T12:07:22;100287.79;;;24.92;39.15
64460;BME280;50828;53.756;21.140;2023-08-12T12:12:30;100300.41;;;25.06;39.03
64460;BME280;50828;53.756;21.140;2023-08-12T12:17:42;100296.23;;;25.12;39.03
64460;BME280;50828;53.756;21.140;2023-08-12T12:22:53;100295.48;;;25.18;38.72
64460;BME280;50828;53.756;21.140;2023-08-12T12:28:02;100291.05;;;25.22;38.55
64460;BME280;50828;53.756;21.140;2023-08-12T12:33:10;100287.95;;;25.26;38.60
64460;BME280;50828;53.756;21.140;2023-08-12T12:38:18;100286.99;;;25.31;38.51
64460;BME280;50828;53.756;21.140;2023-08-12T12:43:26;100274.91;;;25.36;38.41
64460;BME280;50828;53.756;21.140;2023-08-12T12:48:35;100272.25;;;25.43;38.43
64460;BME280;50828;53.756;21.140;2023-08-12T12:53:44;100267.62;;;25.52;38.53
64460;BME280;50828;53.756;21.140;2023-08-12T12:58:52;100271.38;;;25.59;38.19
64460;BME280;50828;53.756;21.140;2023-08-12T13:04:00;100267.64;;;25.64;38.06
64460;BME280;50828;53.756;21.140;2023-08-12T13:09:09;100266.23;;;25.65;37.96
64460;BME280;50828;53.756;21.140;2023-08-12T13:14:18;100265.09;;;25.70;37.83
64460;BME280;50828;53.756;21.140;2023-08-12T13:19:28;100258.21;;;25.78;37.80
64460;BME280;50828;53.756;21.140;2023-08-12T13:24:37;100247.58;;;25.89;37.64
64460;BME280;50828;53.756;21.140;2023-08-12T13:29:45;100242.98;;;25.97;37.64
64460;BME280;50828;53.756;21.140;2023-08-12T13:34:53;100240.55;;;26.07;37.62
64460;BME280;50828;53.756;21.140;2023-08-12T13:40:00;100235.78;;;26.18;37.47
64460;BME280;50828;53.756;21.140;2023-08-12T13:45:10;100229.76;;;26.27;37.32
64460;BME280;50828;53.756;21.140;2023-08-12T13:50:19;100223.70;;;26.35;37.33
64460;BME280;50828;53.756;21.140;2023-08-12T13:55:28;100221.45;;;26.41;37.19
64460;BME280;50828;53.756;21.140;2023-08-12T14:00:36;100213.30;;;26.43;36.91
64460;BME280;50828;53.756;21.140;2023-08-12T14:05:45;100215.44;;;26.48;36.70
64460;BME280;50828;53.756;21.140;2023-08-12T14:10:54;100215.61;;;26.52;36.64
64460;BME280;50828;53.756;21.140;2023-08-12T14:16:03;100209.48;;;26.55;36.69
64460;BME280;50828;53.756;21.140;2023-08-12T14:21:13;100209.72;;;26.58;36.59
64460;BME280;50828;53.756;21.140;2023-08-12T14:26:21;100206.55;;;26.65;36.49
64460;BME280;50828;53.756;21.140;2023-08-12T14:31:30;100200.79;;;26.70;36.22
64460;BME280;50828;53.756;21.140;2023-08-12T14:36:38;100192.63;;;26.73;36.05
64460;BME280;50828;53.756;21.140;2023-08-12T14:41:46;100192.09;;;26.73;36.11
64460;BME280;50828;53.756;21.140;2023-08-12T14:46:55;100190.05;;;26.72;36.01
64460;BME280;50828;53.756;21.140;2023-08-12T14:52:04;100188.90;;;26.71;36.01
64460;BME280;50828;53.756;21.140;2023-08-12T14:57:15;100178.20;;;26.70;36.05
64460;BME280;50828;53.756;21.140;2023-08-12T15:02:23;100176.06;;;26.66;35.94
64460;BME280;50828;53.756;21.140;2023-08-12T15:07:32;100172.52;;;26.62;36.03
64460;BME280;50828;53.756;21.140;2023-08-12T15:12:40;100170.44;;;26.59;36.03
64460;BME280;50828;53.756;21.140;2023-08-12T15:17:48;100167.94;;;26.59;35.87
64460;BME280;50828;53.756;21.140;2023-08-12T15:22:56;100171.16;;;26.58;36.02
64460;BME280;50828;53.756;21.140;2023-08-12T15:28:06;100164.83;;;26.56;36.04
64460;BME280;50828;53.756;21.140;2023-08-12T15:33:14;100158.52;;;26.54;36.02
64460;BME280;50828;53.756;21.140;2023-08-12T15:38:22;100154.14;;;26.51;36.10
64460;BME280;50828;53.756;21.140;2023-08-12T15:43:30;100154.81;;;26.48;36.21
64460;BME280;50828;53.756;21.140;2023-08-12T15:48:38;100149.61;;;26.46;36.23
64460;BME280;50828;53.756;21.140;2023-08-12T15:53:45;100147.85;;;26.44;36.33
64460;BME280;50828;53.756;21.140;2023-08-12T15:58:54;100151.73;;;26.43;36.46
64460;BME280;50828;53.756;21.140;2023-08-12T16:04:04;100151.02;;;26.43;36.51
64460;BME280;50828;53.756;21.140;2023-08-12T16:09:12;100140.93;;;26.43;36.45
64460;BME280;50828;53.756;21.140;2023-08-12T16:14:25;100136.60;;;26.41;36.55
64460;BME280;50828;53.756;21.140;2023-08-12T16:19:33;100131.69;;;26.38;36.57
64460;BME280;50828;53.756;21.140;2023-08-12T16:24:42;100123.65;;;26.32;36.61
64460;BME280;50828;53.756;21.140;2023-08-12T16:29:50;100123.64;;;26.29;36.80
64460;BME280;50828;53.756;21.140;2023-08-12T16:34:58;100123.71;;;26.23;36.72
64460;BME280;50828;53.756;21.140;2023-08-12T16:40:09;100125.42;;;26.19;36.84
64460;BME280;50828;53.756;21.140;2023-08-12T16:45:18;100118.33;;;26.14;37.01
64460;BME280;50828;53.756;21.140;2023-08-12T16:50:27;100119.95;;;26.11;37.08
64460;BME280;50828;53.756;21.140;2023-08-12T16:55:36;100118.95;;;26.07;37.10
64460;BME280;50828;53.756;21.140;2023-08-12T17:00:44;100113.31;;;26.04;37.25
64460;BME280;50828;53.756;21.140;2023-08-12T17:05:53;100114.45;;;26.00;37.48
64460;BME280;50828;53.756;21.140;2023-08-12T17:11:07;100110.25;;;25.95;38.51
64460;BME280;50828;53.756;21.140;2023-08-12T17:16:15;100112.08;;;25.88;39.26
64460;BME280;50828;53.756;21.140;2023-08-12T17:21:24;100115.17;;;25.77;39.52
64460;BME280;50828;53.756;21.140;2023-08-12T17:26:32;100119.80;;;25.65;40.46
64460;BME280;50828;53.756;21.140;2023-08-12T17:31:41;100120.62;;;25.50;41.28
64460;BME280;50828;53.756;21.140;2023-08-12T17:36:49;100120.48;;;25.34;41.32
64460;BME280;50828;53.756;21.140;2023-08-12T17:41:57;100120.36;;;25.17;41.45
64460;BME280;50828;53.756;21.140;2023-08-12T17:47:06;100122.02;;;24.99;41.91
64460;BME280;50828;53.756;21.140;2023-08-12T17:52:14;100124.72;;;24.79;42.28
64460;BME280;50828;53.756;21.140;2023-08-12T17:57:22;100124.36;;;24.61;42.75
64460;BME280;50828;53.756;21.140;2023-08-12T18:02:34;100124.23;;;24.42;43.01
64460;BME280;50828;53.756;21.140;2023-08-12T18:07:42;100112.26;;;24.23;43.14
64460;BME280;50828;53.756;21.140;2023-08-12T18:12:50;100111.25;;;24.04;43.33
64460;BME280;50828;53.756;21.140;2023-08-12T18:17:57;100103.74;;;23.84;43.41
64460;BME280;50828;53.756;21.140;2023-08-12T18:23:06;100101.56;;;23.63;43.64
64460;BME280;50828;53.756;21.140;2023-08-12T18:28:14;100110.64;;;23.48;43.89
64460;BME280;50828;53.756;21.140;2023-08-12T18:33:23;100109.77;;;23.30;44.24
64460;BME280;50828;53.756;21.140;2023-08-12T18:38:32;100108.95;;;23.11;44.53
64460;BME280;50828;53.756;21.140;2023-08-12T18:43:41;100113.71;;;22.95;44.87
64460;BME280;50828;53.756;21.140;2023-08-12T18:48:49;100109.97;;;22.79;44.77
64460;BME280;50828;53.756;21.140;2023-08-12T18:53:58;100109.19;;;22.65;44.82
64460;BME280;50828;53.756;21.140;2023-08-12T18:59:06;100108.10;;;22.52;45.14
64460;BME280;50828;53.756;21.140;2023-08-12T19:04:15;100109.06;;;22.39;45.25
64460;BME280;50828;53.756;21.140;2023-08-12T19:09:25;100109.46;;;22.24;45.41
64460;BME280;50828;53.756;21.140;2023-08-12T19:14:33;100109.25;;;22.08;45.63
64460;BME280;50828;53.756;21.140;2023-08-12T19:19:42;100109.98;;;21.92;45.73
64460;BME280;50828;53.756;21.140;2023-08-12T19:24:50;100102.77;;;21.74;45.95
64460;BME280;50828;53.756;21.140;2023-08-12T19:29:59;100100.92;;;21.56;46.23
64460;BME280;50828;53.756;21.140;2023-08-12T19:35:08;100105.58;;;21.37;46.60
64460;BME280;50828;53.756;21.140;2023-08-12T19:40:17;100111.95;;;21.19;47.04
64460;BME280;50828;53.756;21.140;2023-08-12T19:45:26;100098.56;;;20.90;47.32
64460;BME280;50828;53.756;21.140;2023-08-12T19:50:35;100116.86;;;20.81;47.68
64460;BME280;50828;53.756;21.140;2023-08-12T19:55:44;100119.20;;;20.64;48.10
64460;BME280;50828;53.756;21.140;2023-08-12T20:00:52;100117.85;;;20.47;48.50
64460;BME280;50828;53.756;21.140;2023-08-12T20:06:00;100120.03;;;20.31;48.77
64460;BME280;50828;53.756;21.140;2023-08-12T20:11:08;100122.14;;;20.16;48.98
64460;BME280;50828;53.756;21.140;2023-08-12T20:16:17;100118.86;;;20.01;49.15
64460;BME280;50828;53.756;21.140;2023-08-12T20:21:25;100114.20;;;19.85;49.46
64460;BME280;50828;53.756;21.140;2023-08-12T20:26:34;100114.27;;;19.71;49.86
64460;BME280;50828;53.756;21.140;2023-08-12T20:31:42;100114.83;;;19.56;50.16
64460;BME280;50828;53.756;21.140;2023-08-12T20:36:51;100117.39;;;19.42;50.34
64460;BME280;50828;53.756;21.140;2023-08-12T20:42:00;100112.94;;;19.27;50.75
64460;BME280;50828;53.756;21.140;2023-08-12T20:47:10;100108.69;;;19.13;51.18
64460;BME280;50828;53.756;21.140;2023-08-12T20:52:19;100107.93;;;18.99;51.53
64460;BME280;50828;53.756;21.140;2023-08-12T20:58:20;100105.91;;;18.86;51.76
64460;BME280;50828;53.756;21.140;2023-08-12T21:03:28;100106.74;;;18.74;52.44
64460;BME280;50828;53.756;21.140;2023-08-12T21:08:37;100102.16;;;18.64;52.40
64460;BME280;50828;53.756;21.140;2023-08-12T21:13:45;100101.00;;;18.53;52.66
64460;BME280;50828;53.756;21.140;2023-08-12T21:18:53;100095.34;;;18.42;52.98
64460;BME280;50828;53.756;21.140;2023-08-12T21:24:02;100090.60;;;18.34;52.99
64460;BME280;50828;53.756;21.140;2023-08-12T21:29:12;100080.94;;;18.25;53.36
64460;BME280;50828;53.756;21.140;2023-08-12T21:34:20;100073.70;;;18.16;53.44
64460;BME280;50828;53.756;21.140;2023-08-12T21:39:27;100069.04;;;18.09;53.68
64460;BME280;50828;53.756;21.140;2023-08-12T21:44:36;100065.41;;;18.03;54.03
64460;BME280;50828;53.756;21.140;2023-08-12T21:49:45;100059.30;;;17.96;54.27
64460;BME280;50828;53.756;21.140;2023-08-12T21:54:54;100062.40;;;17.90;54.19
64460;BME280;50828;53.756;21.140;2023-08-12T22:00:03;100065.31;;;17.84;54.19
64460;BME280;50828;53.756;21.140;2023-08-12T22:05:12;100069.17;;;17.77;54.08
64460;BME280;50828;53.756;21.140;2023-08-12T22:10:20;100070.98;;;17.69;54.20
64460;BME280;50828;53.756;21.140;2023-08-12T22:15:29;100080.98;;;17.61;54.41
64460;BME280;50828;53.756;21.140;2023-08-12T22:20:39;100077.91;;;17.52;54.34
64460;BME280;50828;53.756;21.140;2023-08-12T22:25:46;100074.04;;;17.43;54.53
64460;BME280;50828;53.756;21.140;2023-08-12T22:30:54;100071.65;;;17.34;54.74
64460;BME280;50828;53.756;21.140;2023-08-12T22:36:01;100066.09;;;17.24;55.09
64460;BME280;50828;53.756;21.140;2023-08-12T22:41:10;100066.19;;;17.15;54.98
64460;BME280;50828;53.756;21.140;2023-08-12T22:46:18;100062.41;;;17.05;54.92
64460;BME280;50828;53.756;21.140;2023-08-12T22:51:26;100059.48;;;16.96;55.11
64460;BME280;50828;53.756;21.140;2023-08-12T22:56:34;100058.15;;;16.86;55.37
64460;BME280;50828;53.756;21.140;2023-08-12T23:01:44;100050.29;;;16.76;55.73
64460;BME280;50828;53.756;21.140;2023-08-12T23:06:53;100052.86;;;16.66;56.14
64460;BME280;50828;53.756;21.140;2023-08-12T23:12:00;100045.70;;;16.59;56.93
64460;BME280;50828;53.756;21.140;2023-08-12T23:17:08;100043.44;;;16.53;57.16
64460;BME280;50828;53.756;21.140;2023-08-12T23:22:16;100035.94;;;16.51;57.83
64460;BME280;50828;53.756;21.140;2023-08-12T23:27:25;100030.32;;;16.47;57.85
64460;BME280;50828;53.756;21.140;2023-08-12T23:32:33;100034.35;;;16.45;58.19
64460;BME280;50828;53.756;21.140;2023-08-12T23:37:42;100031.02;;;16.44;58.35
64460;BME280;50828;53.756;21.140;2023-08-12T23:42:50;100023.19;;;16.45;58.67
64460;BME280;50828;53.756;21.140;2023-08-12T23:47:59;100031.33;;;16.45;58.64
64460;BME280;50828;53.756;21.140;2023-08-12T23:53:07;100029.61;;;16.47;58.88
64460;BME280;50828;53.756;21.140;2023-08-12T23:58:16;100020.59;;;16.49;58.85
